createdAt,value
2022-08-01T00:00:15.096Z,63.20
2022-08-01T00:02:42.341Z,67.00
2022-08-01T00:05:10.103Z,64.80
2022-08-01T00:07:38.223Z,67.00
2022-08-01T00:10:07.251Z,66.40
2022-08-01T00:12:34.127Z,66.80
2022-08-01T00:15:01.346Z,64.40
2022-08-01T00:17:28.203Z,67.80
2022-08-01T00:19:55.571Z,65.20
2022-08-01T00:22:22.360Z,66.80
2022-08-01T00:24:49.217Z,69.80
2022-08-01T00:27:16.203Z,71.40
2022-08-01T00:30:11.713Z,67.00
2022-08-01T00:32:33.008Z,67.40
2022-08-01T00:34:59.857Z,69.20
2022-08-01T00:37:26.840Z,67.00
2022-08-01T00:39:55.933Z,67.00
2022-08-01T00:42:22.864Z,69.00
2022-08-01T00:44:49.807Z,66.20
2022-08-01T00:47:16.729Z,63.60
2022-08-01T00:49:43.689Z,67.00
2022-08-01T00:52:11.140Z,78.00
2022-08-01T00:54:38.054Z,65.20
2022-08-01T00:57:08.553Z,65.20
2022-08-01T00:59:39.871Z,67.00
2022-08-01T01:02:14.900Z,64.00
2022-08-01T01:04:43.467Z,63.80
2022-08-01T01:07:30.807Z,66.00
2022-08-01T01:10:03.684Z,64.00
2022-08-01T01:12:41.759Z,64.00
2022-08-01T01:15:18.053Z,66.00
2022-08-01T01:17:58.765Z,63.00
2022-08-01T01:20:31.720Z,64.40
2022-08-01T01:23:29.442Z,67.00
2022-08-01T01:26:03.014Z,63.60
2022-08-01T01:28:43.489Z,65.20
2022-08-01T01:31:13.047Z,66.00
2022-08-01T01:33:45.336Z,64.80
2022-08-01T01:36:17.972Z,63.20
2022-08-01T01:38:48.049Z,66.00
2022-08-01T01:41:18.416Z,64.40
2022-08-01T01:43:47.529Z,66.00
2022-08-01T01:46:19.092Z,66.00
2022-08-01T01:48:48.888Z,64.00
2022-08-01T01:51:17.729Z,63.80
2022-08-01T01:53:46.661Z,64.80
2022-08-01T01:56:17.647Z,63.60
2022-08-01T01:58:45.289Z,63.40
2022-08-01T02:01:14.619Z,64.80
2022-08-01T02:03:44.573Z,63.20
2022-08-01T02:06:15.969Z,64.40
2022-08-01T02:08:45.008Z,63.20
2022-08-01T02:11:21.883Z,67.20
2022-08-01T02:13:59.730Z,63.00
2022-08-01T02:16:30.215Z,63.60
2022-08-01T02:18:57.779Z,63.40
2022-08-01T02:22:02.724Z,62.40
2022-08-01T02:24:41.976Z,63.60
2022-08-01T02:27:17.009Z,63.20
2022-08-01T02:29:54.482Z,61.40
2022-08-01T02:32:26.843Z,66.00
2022-08-01T02:34:57.771Z,63.00
2022-08-01T02:37:27.623Z,63.00
2022-08-01T02:39:55.961Z,66.00
2022-08-01T02:42:27.888Z,66.20
2022-08-01T02:44:56.137Z,61.40
2022-08-01T02:47:24.643Z,61.40
2022-08-01T02:49:54.614Z,61.00
2022-08-01T02:52:24.288Z,63.40
2022-08-01T02:54:54.531Z,63.20
2022-08-01T02:57:22.695Z,61.00
2022-08-01T02:59:56.571Z,63.40
2022-08-01T03:02:25.331Z,61.00
2022-08-01T03:04:57.055Z,82.20
2022-08-01T03:07:25.175Z,62.60
2022-08-01T03:10:02.899Z,61.80
2022-08-01T03:12:34.337Z,61.00
2022-08-01T03:15:03.456Z,62.60
2022-08-01T03:17:31.689Z,63.20
2022-08-01T03:20:01.369Z,62.60
2022-08-01T03:22:31.624Z,62.20
2022-08-01T03:25:00.849Z,61.80
2022-08-01T03:27:27.763Z,61.00
2022-08-01T03:29:58.052Z,61.40
2022-08-01T03:32:28.414Z,61.00
2022-08-01T03:34:55.333Z,67.00
2022-08-01T03:37:54.306Z,65.40
2022-08-01T03:40:39.048Z,71.00
2022-08-01T03:43:11.325Z,61.00
2022-08-01T03:45:41.202Z,84.20
2022-08-01T03:48:13.649Z,61.00
2022-08-01T03:50:46.966Z,60.40
2022-08-01T03:53:15.582Z,64.20
2022-08-01T03:55:44.964Z,60.00
2022-08-01T03:58:13.650Z,62.80
2022-08-01T04:00:41.533Z,60.20
2022-08-01T04:03:10.330Z,59.20
2022-08-01T04:05:37.576Z,57.60
2022-08-01T04:08:04.691Z,60.00
2022-08-01T04:10:31.656Z,58.40
2022-08-01T04:12:58.610Z,72.00
2022-08-01T04:15:25.456Z,65.40
2022-08-01T04:17:52.533Z,60.00
2022-08-01T04:20:19.571Z,69.40
2022-08-01T04:22:46.574Z,59.60
2022-08-01T04:25:28.172Z,59.60
2022-08-01T04:27:56.573Z,62.60
2022-08-01T04:30:27.220Z,61.00
2022-08-01T04:32:56.492Z,59.60
2022-08-01T04:36:02.269Z,60.00
2022-08-01T04:38:18.771Z,60.80
2022-08-01T04:40:47.297Z,60.00
2022-08-01T04:43:15.055Z,58.00
2022-08-01T04:45:44.816Z,60.60
2022-08-01T04:48:12.944Z,61.00
2022-08-01T04:50:42.990Z,59.20
2022-08-01T04:53:18.508Z,58.40
2022-08-01T04:55:49.485Z,60.00
2022-08-01T04:58:18.457Z,61.00
2022-08-01T05:00:46.470Z,58.60
2022-08-01T05:03:13.407Z,61.80
2022-08-01T05:05:40.574Z,64.40
2022-08-01T05:08:07.507Z,62.80
2022-08-01T05:10:35.273Z,63.20
2022-08-01T05:13:02.409Z,58.20
2022-08-01T05:15:29.332Z,60.40
2022-08-01T05:17:57.336Z,54.00
2022-08-01T05:20:24.213Z,62.80
2022-08-01T05:22:50.983Z,58.00
2022-08-01T05:25:56.059Z,60.20
2022-08-01T05:28:26.579Z,60.00
2022-08-01T05:31:12.467Z,60.60
2022-08-01T05:33:43.288Z,60.20
2022-08-01T05:36:12.809Z,68.20
2022-08-01T05:38:42.130Z,60.80
2022-08-01T05:41:28.051Z,60.20
2022-08-01T05:44:07.691Z,59.60
2022-08-01T05:46:35.210Z,59.60
2022-08-01T05:49:04.239Z,61.00
2022-08-01T05:51:31.251Z,60.60
2022-08-01T05:53:58.972Z,61.00
2022-08-01T05:56:30.490Z,62.00
2022-08-01T05:58:59.049Z,64.00
2022-08-01T06:01:26.252Z,60.20
2022-08-01T06:03:55.329Z,60.00
2022-08-01T06:06:25.526Z,61.00
2022-08-01T06:08:53.176Z,65.20
2022-08-01T06:11:20.088Z,62.80
2022-08-01T06:13:48.246Z,60.60
2022-08-01T06:16:16.882Z,66.00
2022-08-01T06:18:43.771Z,63.80
2022-08-01T06:21:10.642Z,61.40
2022-08-01T06:23:38.454Z,61.00
2022-08-01T06:26:05.428Z,62.60
2022-08-01T06:28:32.306Z,62.20
2022-08-01T06:31:00.928Z,67.80
2022-08-01T06:33:28.328Z,62.60
2022-08-01T06:35:55.601Z,63.00
2022-08-01T06:38:22.763Z,63.60
2022-08-01T06:40:49.721Z,64.00
2022-08-01T06:43:16.816Z,63.00
2022-08-01T06:45:44.371Z,63.60
2022-08-01T06:48:11.250Z,63.00
2022-08-01T06:50:38.538Z,64.00
2022-08-01T06:53:05.529Z,64.00
2022-08-01T06:55:32.776Z,63.80
2022-08-01T06:57:59.691Z,63.60
2022-08-01T07:00:28.156Z,64.80
2022-08-01T07:02:57.176Z,63.80
2022-08-01T07:05:24.857Z,64.00
2022-08-01T07:07:52.050Z,66.00
2022-08-01T07:10:21.657Z,63.20
2022-08-01T07:12:53.171Z,63.80
2022-08-01T07:15:27.687Z,64.00
2022-08-01T07:17:58.213Z,66.20
2022-08-01T07:20:25.063Z,63.40
2022-08-01T07:22:53.565Z,64.00
2022-08-01T07:25:23.568Z,68.40
2022-08-01T07:27:50.401Z,65.20
2022-08-01T07:30:17.362Z,66.40
2022-08-01T07:32:44.161Z,66.80
2022-08-01T07:35:11.587Z,66.80
2022-08-01T07:37:47.703Z,70.20
2022-08-01T07:40:16.363Z,67.40
2022-08-01T07:42:44.665Z,68.20
2022-08-01T07:45:12.644Z,77.40
2022-08-01T07:47:39.530Z,69.20
2022-08-01T07:50:07.930Z,70.20
2022-08-01T07:52:35.201Z,67.00
2022-08-01T07:55:02.043Z,71.20
2022-08-01T07:57:28.969Z,69.40
2022-08-01T07:59:56.015Z,67.00
2022-08-01T08:02:22.916Z,68.20
2022-08-01T08:04:49.938Z,67.00
2022-08-01T08:07:17.379Z,67.00
2022-08-01T08:09:44.202Z,67.40
2022-08-01T08:12:18.208Z,67.00
2022-08-01T08:14:45.419Z,69.00
2022-08-01T08:17:12.253Z,69.40
2022-08-01T08:19:40.306Z,69.00
2022-08-01T08:22:09.130Z,71.40
2022-08-01T08:24:45.612Z,69.40
2022-08-01T08:27:14.065Z,68.60
2022-08-01T08:29:41.055Z,70.00
2022-08-01T08:32:08.609Z,69.20
2022-08-01T08:34:35.923Z,70.00
2022-08-01T08:37:02.848Z,70.40
2022-08-01T08:39:31.117Z,70.00
2022-08-01T08:42:10.989Z,70.00
2022-08-01T08:44:38.687Z,70.00
2022-08-01T08:47:09.344Z,70.00
2022-08-01T08:49:37.253Z,82.20
2022-08-01T08:52:05.705Z,69.80
2022-08-01T08:54:38.117Z,73.00
2022-08-01T08:57:06.445Z,70.00
2022-08-01T08:59:33.632Z,70.00
2022-08-01T09:02:00.560Z,70.00
2022-08-01T09:04:28.092Z,70.00
2022-08-01T09:06:55.989Z,70.00
2022-08-01T09:09:24.238Z,81.00
2022-08-01T09:11:56.823Z,70.00
2022-08-01T09:14:28.243Z,69.00
2022-08-01T09:17:08.794Z,70.00
2022-08-01T09:19:40.064Z,70.00
2022-08-01T09:22:19.623Z,70.00
2022-08-01T09:24:59.800Z,77.40
2022-08-01T09:27:26.707Z,69.80
2022-08-01T09:30:01.173Z,68.40
2022-08-01T09:32:35.755Z,70.00
2022-08-01T09:35:30.395Z,71.60
2022-08-01T09:38:30.881Z,70.00
2022-08-01T09:40:59.791Z,69.20
2022-08-01T09:43:31.671Z,72.00
2022-08-01T09:45:59.836Z,70.00
2022-08-01T09:48:29.575Z,70.00
2022-08-01T09:51:01.293Z,77.40
2022-08-01T09:53:51.011Z,72.00
2022-08-01T09:56:23.563Z,69.40
2022-08-01T09:59:01.653Z,74.40
2022-08-01T10:01:43.423Z,70.00
2022-08-01T10:04:18.900Z,72.40
2022-08-01T10:06:55.584Z,78.60
2022-08-01T10:09:41.250Z,73.00
2022-08-01T10:12:15.622Z,71.20
2022-08-01T10:14:46.268Z,72.40
2022-08-01T10:17:19.728Z,73.80
2022-08-01T10:19:50.724Z,73.80
2022-08-01T10:22:23.042Z,72.80
2022-08-01T10:24:56.085Z,72.40
2022-08-01T10:27:37.815Z,73.00
2022-08-01T10:30:21.559Z,74.20
2022-08-01T10:32:54.820Z,70.00
2022-08-01T10:35:47.454Z,70.00
2022-08-01T10:38:13.431Z,73.00
2022-08-01T10:41:00.175Z,70.80
2022-08-01T10:43:27.180Z,73.00
2022-08-01T10:45:55.345Z,74.40
2022-08-01T10:48:36.512Z,72.40
2022-08-01T10:51:17.743Z,72.00
2022-08-01T10:53:53.959Z,77.00
2022-08-01T10:56:26.646Z,74.40
2022-08-01T10:59:06.264Z,72.00
2022-08-01T11:01:34.152Z,70.00
2022-08-01T11:04:16.417Z,70.00
2022-08-01T11:06:50.061Z,72.00
2022-08-01T11:09:36.377Z,71.60
2022-08-01T11:12:13.096Z,73.00
2022-08-01T11:14:59.577Z,73.00
2022-08-01T11:17:43.007Z,73.00
2022-08-01T11:20:16.455Z,75.00
2022-08-01T11:23:03.396Z,75.20
2022-08-01T11:26:06.117Z,73.00
2022-08-01T11:28:36.524Z,82.60
2022-08-01T11:31:07.564Z,77.80
2022-08-01T11:33:45.943Z,75.00
2022-08-01T11:36:14.474Z,73.80
2022-08-01T11:38:47.429Z,75.00
2022-08-01T11:41:18.380Z,73.00
2022-08-01T11:44:03.869Z,75.00
2022-08-01T11:46:53.748Z,83.00
2022-08-01T11:50:00.761Z,73.00
2022-08-01T11:52:52.173Z,75.00
2022-08-01T11:55:19.555Z,73.00
2022-08-01T11:57:46.387Z,73.00
2022-08-01T12:00:19.691Z,75.00
2022-08-01T12:02:48.018Z,75.00
2022-08-01T12:05:19.345Z,82.40
2022-08-01T12:07:47.485Z,75.00
2022-08-01T12:10:17.418Z,73.00
2022-08-01T12:12:49.850Z,75.00
2022-08-01T12:15:18.057Z,74.20
2022-08-01T12:17:57.994Z,73.00
2022-08-01T12:20:31.597Z,76.40
2022-08-01T12:23:09.108Z,73.00
2022-08-01T12:25:36.913Z,75.20
2022-08-01T12:28:06.267Z,83.80
2022-08-01T12:30:37.380Z,75.00
2022-08-01T12:33:09.822Z,76.00
2022-08-01T12:35:39.196Z,76.00
2022-08-01T12:38:16.983Z,75.00
2022-08-01T12:40:46.101Z,73.00
2022-08-01T12:43:27.075Z,75.00
2022-08-01T12:45:57.860Z,75.00
2022-08-01T12:48:26.056Z,75.00
2022-08-01T12:50:54.064Z,75.20
2022-08-01T12:53:22.211Z,76.00
2022-08-01T12:55:59.522Z,76.00
2022-08-01T12:58:34.755Z,75.00
2022-08-01T13:01:07.926Z,73.00
2022-08-01T13:03:35.094Z,74.60
2022-08-01T13:06:02.144Z,73.40
2022-08-01T13:08:39.060Z,73.00
2022-08-01T13:11:10.182Z,75.00
2022-08-01T13:13:48.942Z,73.40
2022-08-01T13:16:30.877Z,73.40
2022-08-01T13:19:07.527Z,73.40
2022-08-01T13:21:53.555Z,73.00
2022-08-01T13:24:30.824Z,73.00
2022-08-01T13:27:21.580Z,73.00
2022-08-01T13:29:51.558Z,73.00
2022-08-01T13:32:29.802Z,73.00
2022-08-01T13:35:09.894Z,73.00
2022-08-01T13:37:38.938Z,71.60
2022-08-01T13:40:08.499Z,82.60
2022-08-01T13:42:35.660Z,70.00
2022-08-01T13:45:03.808Z,71.20
2022-08-01T13:47:32.530Z,72.40
2022-08-01T13:50:03.504Z,72.80
2022-08-01T13:52:32.639Z,73.00
2022-08-01T13:55:00.504Z,73.00
2022-08-01T13:57:36.290Z,73.00
2022-08-01T14:00:09.939Z,73.00
2022-08-01T14:02:36.943Z,72.00
2022-08-01T14:05:11.300Z,73.00
2022-08-01T14:07:38.436Z,72.60
2022-08-01T14:10:19.972Z,72.20
2022-08-01T14:12:49.662Z,72.00
2022-08-01T14:15:36.467Z,81.00
2022-08-01T14:18:06.785Z,75.60
2022-08-01T14:20:35.789Z,83.00
2022-08-01T14:23:09.721Z,72.80
2022-08-01T14:26:00.635Z,72.00
2022-08-01T14:28:29.626Z,72.00
2022-08-01T14:30:59.228Z,73.00
2022-08-01T14:33:39.782Z,73.00
2022-08-01T14:36:30.510Z,73.00
2022-08-01T14:38:54.422Z,73.00
2022-08-01T14:41:31.140Z,72.00
2022-08-01T14:44:01.437Z,73.00
2022-08-01T14:46:28.781Z,71.20
2022-08-01T14:49:02.382Z,72.00
2022-08-01T14:51:35.236Z,72.00
2022-08-01T14:54:02.141Z,73.40
2022-08-01T14:56:31.413Z,73.00
2022-08-01T14:59:00.416Z,73.80
2022-08-01T15:01:33.224Z,72.00
2022-08-01T15:04:09.886Z,72.20
2022-08-01T15:06:38.556Z,72.40
2022-08-01T15:09:09.595Z,72.00
2022-08-01T15:11:37.597Z,72.00
2022-08-01T15:14:24.214Z,79.80
2022-08-01T15:16:51.260Z,72.80
2022-08-01T15:19:18.749Z,72.00
2022-08-01T15:21:46.382Z,72.00
2022-08-01T15:24:14.948Z,67.00
2022-08-01T15:26:44.383Z,70.00
2022-08-01T15:29:13.701Z,70.00
2022-08-01T15:31:40.742Z,72.00
2022-08-01T15:34:11.306Z,70.00
2022-08-01T15:36:43.429Z,70.00
2022-08-01T15:39:25.893Z,71.60
2022-08-01T15:41:53.157Z,70.00
2022-08-01T15:44:21.303Z,70.00
2022-08-01T15:47:15.871Z,71.60
2022-08-01T15:49:42.838Z,69.80
2022-08-01T15:52:22.399Z,70.00
2022-08-01T15:54:50.277Z,69.00
2022-08-01T15:57:35.746Z,67.00
2022-08-01T16:00:20.939Z,67.00
2022-08-01T16:02:57.369Z,69.60
2022-08-01T16:05:24.262Z,68.60
2022-08-01T16:07:59.492Z,67.00
2022-08-01T16:10:29.963Z,70.80
2022-08-01T16:12:57.674Z,69.40
2022-08-01T16:15:36.263Z,68.20
2022-08-01T16:18:08.104Z,79.40
2022-08-01T16:20:35.423Z,67.00
2022-08-01T16:23:02.544Z,67.00
2022-08-01T16:25:29.547Z,67.00
2022-08-01T16:27:56.434Z,68.20
2022-08-01T16:30:23.442Z,69.00
2022-08-01T16:32:51.829Z,67.00
2022-08-01T16:35:28.206Z,66.40
2022-08-01T16:38:05.916Z,71.80
2022-08-01T16:40:34.957Z,67.80
2022-08-01T16:43:14.439Z,67.00
2022-08-01T16:45:43.360Z,70.60
2022-08-01T16:48:12.140Z,71.20
2022-08-01T16:50:39.579Z,69.00
2022-08-01T16:53:06.592Z,69.20
2022-08-01T16:55:49.457Z,68.60
2022-08-01T16:58:19.824Z,67.40
2022-08-01T17:00:57.062Z,67.40
2022-08-01T17:03:46.644Z,67.00
2022-08-01T17:06:13.702Z,67.00
2022-08-01T17:08:46.188Z,67.80
2022-08-01T17:11:15.122Z,67.00
2022-08-01T17:13:42.301Z,67.80
2022-08-01T17:16:09.465Z,67.00
2022-08-01T17:18:37.724Z,67.00
2022-08-01T17:21:04.935Z,67.00
2022-08-01T17:23:33.020Z,67.00
2022-08-01T17:26:00.307Z,76.00
2022-08-01T17:28:28.255Z,73.60
2022-08-01T17:30:59.509Z,67.00
2022-08-01T17:33:44.320Z,67.00
2022-08-01T17:36:18.422Z,67.00
2022-08-01T17:38:49.902Z,67.00
2022-08-01T17:41:16.855Z,67.00
2022-08-01T17:43:43.671Z,67.00
2022-08-01T17:46:10.948Z,69.20
2022-08-01T17:48:37.781Z,70.60
2022-08-01T17:51:04.789Z,71.00
2022-08-01T17:53:31.825Z,67.00
2022-08-01T17:56:00.825Z,67.00
2022-08-01T17:58:51.384Z,67.00
2022-08-01T18:01:17.862Z,69.60
2022-08-01T18:03:45.559Z,67.00
2022-08-01T18:06:15.656Z,67.80
2022-08-01T18:08:43.687Z,67.00
2022-08-01T18:11:11.237Z,67.00
2022-08-01T18:13:40.466Z,68.20
2022-08-01T18:16:10.025Z,67.00
2022-08-01T18:18:38.982Z,67.00
2022-08-01T18:21:07.502Z,67.00
2022-08-01T18:23:35.262Z,67.00
2022-08-01T18:26:03.541Z,67.00
2022-08-01T18:28:34.159Z,66.20
2022-08-01T18:31:08.895Z,67.00
2022-08-01T18:33:36.267Z,67.00
2022-08-01T18:36:04.558Z,67.00
2022-08-01T18:38:35.170Z,67.40
2022-08-01T18:41:02.262Z,67.00
2022-08-01T18:43:29.255Z,67.00
2022-08-01T18:45:59.176Z,77.20
2022-08-01T18:48:26.069Z,67.00
2022-08-01T18:51:00.982Z,67.00
2022-08-01T18:53:28.583Z,67.00
2022-08-01T18:55:55.471Z,67.80
2022-08-01T18:58:22.460Z,67.00
2022-08-01T19:00:49.398Z,67.00
2022-08-01T19:03:17.096Z,67.00
2022-08-01T19:05:44.036Z,67.40
2022-08-01T19:08:12.505Z,72.00
2022-08-01T19:10:40.342Z,68.60
2022-08-01T19:13:08.334Z,67.80
2022-08-01T19:15:36.104Z,67.80
2022-08-01T19:18:04.021Z,67.00
2022-08-01T19:21:07.655Z,81.60
2022-08-01T19:23:53.904Z,66.20
2022-08-01T19:26:23.506Z,66.60
2022-08-01T19:28:56.184Z,67.00
2022-08-01T19:31:27.018Z,67.00
2022-08-01T19:33:57.941Z,69.40
2022-08-01T19:36:25.460Z,67.80
2022-08-01T19:39:00.621Z,68.60
2022-08-01T19:41:29.031Z,67.00
2022-08-01T19:43:58.023Z,68.60
2022-08-01T19:46:55.701Z,67.00
2022-08-01T19:49:24.125Z,66.80
2022-08-01T19:51:54.900Z,66.60
2022-08-01T19:54:27.198Z,69.20
2022-08-01T19:56:54.536Z,66.20
2022-08-01T19:59:23.872Z,67.00
2022-08-01T20:01:52.695Z,67.00
2022-08-01T20:04:22.773Z,66.40
2022-08-01T20:06:52.574Z,66.80
2022-08-01T20:09:21.741Z,66.20
2022-08-01T20:11:51.542Z,66.40
2022-08-01T20:14:26.192Z,66.80
2022-08-01T20:16:56.389Z,66.80
2022-08-01T20:19:27.148Z,66.00
2022-08-01T20:22:03.202Z,76.60
2022-08-01T20:24:40.931Z,66.00
2022-08-01T20:27:09.922Z,67.00
2022-08-01T20:29:38.315Z,66.00
2022-08-01T20:32:06.067Z,69.80
2022-08-01T20:34:37.558Z,66.60
2022-08-01T20:37:07.128Z,66.40
2022-08-01T20:39:38.542Z,66.00
2022-08-01T20:42:06.294Z,66.40
2022-08-01T20:44:36.541Z,66.00
2022-08-01T20:47:05.333Z,64.80
2022-08-01T20:49:33.859Z,66.20
2022-08-01T20:52:11.193Z,66.00
2022-08-01T20:54:39.903Z,66.20
2022-08-01T20:57:16.068Z,70.80
2022-08-01T21:00:05.423Z,67.00
2022-08-01T21:02:51.630Z,66.00
2022-08-01T21:05:55.661Z,68.20
2022-08-01T21:08:39.854Z,72.40
2022-08-01T21:11:10.552Z,71.80
2022-08-01T21:13:42.073Z,66.80
2022-08-01T21:16:24.525Z,66.20
2022-08-01T21:21:51.663Z,67.00
2022-08-01T21:24:21.906Z,67.40
2022-08-01T21:26:53.743Z,67.40
2022-08-01T21:29:23.268Z,71.60
2022-08-01T21:32:11.747Z,69.80
2022-08-01T21:34:43.360Z,71.00
2022-08-01T21:37:11.346Z,66.80
2022-08-01T21:39:38.707Z,79.00
2022-08-01T21:42:09.123Z,66.20
2022-08-01T21:44:44.744Z,70.20
2022-08-01T21:47:12.232Z,72.00
2022-08-01T21:49:41.048Z,66.00
2022-08-01T21:52:22.357Z,66.20
2022-08-01T21:55:11.046Z,67.00
2022-08-01T21:58:12.621Z,66.80
2022-08-01T22:00:44.428Z,66.00
2022-08-01T22:03:40.797Z,64.80
2022-08-01T22:06:08.175Z,67.00
2022-08-01T22:08:42.384Z,67.80
2022-08-01T22:11:13.627Z,69.60
2022-08-01T22:13:42.239Z,66.00
2022-08-01T22:16:10.501Z,69.00
2022-08-01T22:18:38.606Z,65.20
2022-08-01T22:21:05.519Z,67.00
2022-08-01T22:23:37.207Z,74.40
2022-08-01T22:26:07.902Z,69.40
2022-08-01T22:28:36.267Z,64.80
2022-08-01T22:31:03.744Z,69.60
2022-08-01T22:33:34.187Z,66.00
2022-08-01T22:36:02.863Z,65.80
2022-08-01T22:38:30.025Z,65.60
2022-08-01T22:41:30.908Z,64.00
2022-08-01T22:44:27.822Z,67.00
2022-08-01T22:47:04.518Z,66.00
2022-08-01T22:49:54.574Z,64.80
2022-08-01T22:52:28.656Z,66.60
2022-08-01T22:55:09.017Z,66.20
2022-08-01T22:57:47.317Z,66.00
2022-08-01T23:00:17.654Z,64.40
2022-08-01T23:02:54.142Z,64.00
2022-08-01T23:05:23.058Z,70.00
2022-08-01T23:07:54.917Z,67.40
2022-08-01T23:10:23.897Z,67.00
2022-08-01T23:12:52.785Z,66.80
2022-08-01T23:15:20.983Z,66.40
2022-08-01T23:17:49.063Z,66.00
2022-08-01T23:20:17.377Z,63.40
2022-08-01T23:22:45.054Z,64.00
2022-08-01T23:25:14.324Z,66.00
2022-08-01T23:27:51.776Z,57.40
2022-08-01T23:30:33.229Z,67.20
2022-08-01T23:33:00.595Z,66.00
2022-08-01T23:35:28.227Z,69.20
2022-08-01T23:38:02.566Z,67.40
2022-08-01T23:40:34.483Z,61.40
2022-08-01T23:43:03.894Z,63.00
2022-08-01T23:46:02.523Z,67.00
2022-08-01T23:48:19.189Z,70.80
2022-08-01T23:50:46.304Z,63.80
2022-08-01T23:53:13.376Z,63.00
2022-08-01T23:55:40.544Z,63.80
2022-08-01T23:58:10.337Z,63.00
